Flight Track Log - Related Links

Times and Time Zones

All times are in EST time to prevent confusion due to time zone crossing. See the CHH7968 flight status page for this flight to view local times or setup timezone preferences in your user account.

Time Position Orientation Groundspeed Altitude Reporting Facility
EST Latitude Longitude Course Direction KTS MPH feet Rate Location/Type
Wed 03:13:30 AM 52.2600 104.4220 90° East 159 183 2,900  Level FlightAware ADS-B
Wed 03:14:03 AM 52.2500 104.4600 113° Southeast 198 228 3,900 1,662 Climbing FlightAware ADS-B
Wed 03:14:35 AM 52.2370 104.5090 113° Southeast 248 285 4,700 2,366 Climbing FlightAware ADS-B
Wed 03:15:14 AM 52.2060 104.5710 129° Southeast 271 312 6,700 3,167 Climbing FlightAware ADS-B
Wed 03:15:47 AM 52.1680 104.5790 173° South 273 314 8,500 3,296 Climbing FlightAware ADS-B
Wed 03:16:25 AM 52.1170 104.6020 165° South 296 341 10,600 3,120 Climbing FlightAware ADS-B
Wed 03:17:27 AM 52.0440 104.6780 147° Southeast 316 364 13,700 2,932 Climbing FlightAware ADS-B
Wed 03:17:53 AM 52.0110 104.7120 148° Southeast 326 375 14,900 2,692 Climbing FlightAware ADS-B
Wed 03:18:45 AM 51.9440 104.7830 147° Southeast 345 397 17,200 1,891 Climbing FlightAware ADS-B
Wed 03:19:25 AM 51.8890 104.8400 147° Southeast 392 451 17,800 1,469 Climbing FlightAware ADS-B
Wed 03:20:23 AM 51.7940 104.9380 147° Southeast 427 491 19,600 2,049 Climbing FlightAware ADS-B
Wed 03:21:28 AM 51.6820 105.0530 148° Southeast 448 516 22,000 2,265 Climbing FlightAware ADS-B
Wed 03:22:01 AM 51.6230 105.1140 147° Southeast 454 522 23,300 2,113 Climbing FlightAware ADS-B
Wed 03:22:39 AM 51.5580 105.1810 147° Southeast 461 531 24,500 1,846 Climbing FlightAware ADS-B
Wed 03:23:06 AM 51.5100 105.2320 147° Southeast 461 531 25,300 480 Climbing FlightAware ADS-B
Wed 03:24:19 AM 51.3990 105.3470 147° Southeast 461 531 25,300  Level FlightAware ADS-B
Wed 03:24:55 AM 51.3450 105.4040 147° Southeast 461 531 25,300  Level FlightAware ADS-B
Wed 03:25:56 AM 51.2520 105.5000 147° Southeast 461 531 25,300  Level FlightAware ADS-B
Wed 03:26:20 AM 51.2150 105.5380 147° Southeast 461 531 25,300  Level FlightAware ADS-B
Wed 03:26:56 AM 51.1610 105.5950 146° Southeast 461 531 25,300 -101 Level FlightAware ADS-B
Wed 03:29:00 AM 51.0502 105.7368 141° Southeast  Level Estimated
Wed 03:30:00 AM 50.9964 105.8051 141° Southeast  Level Estimated
Wed 03:31:00 AM 50.9427 105.8733 141° Southeast  Level Estimated
Wed 03:32:00 AM 50.8889 105.9414 141° Southeast  Level Estimated
Wed 03:33:00 AM 50.8351 106.0093 141° Southeast  Level Estimated
Wed 03:34:00 AM 50.7812 106.0770 141° Southeast  Level Estimated
Wed 03:35:00 AM 50.6960 106.1838 142° Southeast  Level Estimated
Wed 03:36:00 AM 50.6107 106.2901 142° Southeast  Level Estimated
Wed 03:37:00 AM 50.5253 106.3961 142° Southeast  Level Estimated
Wed 03:38:00 AM 50.4398 106.5017 142° Southeast  Level Estimated
Wed 03:39:00 AM 50.3542 106.6069 142° Southeast  Level Estimated
Wed 03:40:00 AM 50.2685 106.7118 142° Southeast  Level Estimated
Wed 03:41:00 AM 50.1827 106.8162 142° Southeast  Level Estimated
Wed 03:42:00 AM 50.0968 106.9203 142° Southeast  Level Estimated
Wed 03:43:00 AM 50.0108 107.0240 142° Southeast  Level Estimated
Wed 03:44:00 AM 49.9248 107.1274 142° Southeast  Level Estimated
Wed 03:45:00 AM 49.8386 107.2304 142° Southeast  Level Estimated
Wed 03:46:00 AM 49.7523 107.3330 142° Southeast  Level Estimated
Wed 03:47:00 AM 49.6660 107.4352 143° Southeast  Level Estimated
Wed 03:48:00 AM 49.5796 107.5371 143° Southeast  Level Estimated
Wed 03:49:00 AM 49.4931 107.6386 143° Southeast  Level Estimated
Wed 03:50:00 AM 49.4064 107.7398 143° Southeast  Level Estimated
Wed 03:51:00 AM 49.3198 107.8406 143° Southeast  Level Estimated
Wed 03:52:00 AM 49.2330 107.9410 143° Southeast  Level Estimated
Wed 03:53:00 AM 49.1461 108.0411 143° Southeast  Level Estimated
Wed 03:54:00 AM 49.0591 108.1409 143° Southeast  Level Estimated
Wed 03:55:00 AM 48.9721 108.2403 143° Southeast  Level Estimated
Wed 03:56:00 AM 48.8849 108.3393 143° Southeast  Level Estimated
Wed 03:57:00 AM 48.7977 108.4380 143° Southeast  Level Estimated
Wed 03:58:00 AM 48.7104 108.5364 143° Southeast  Level Estimated
Wed 03:59:00 AM 48.6231 108.6344 143° Southeast  Level Estimated
Wed 04:00:00 AM 48.5356 108.7321 144° Southeast  Level Estimated
Wed 04:01:00 AM 48.4480 108.8295 144° Southeast  Level Estimated
Wed 04:02:00 AM 48.3604 108.9265 144° Southeast  Level Estimated
Wed 04:03:00 AM 48.2727 109.0232 144° Southeast  Level Estimated
Wed 04:04:00 AM 48.1849 109.1195 144° Southeast  Level Estimated
Wed 04:05:00 AM 48.0970 109.2155 144° Southeast  Level Estimated
Wed 04:06:00 AM 48.0091 109.3112 144° Southeast  Level Estimated
Wed 04:07:00 AM 47.9211 109.4066 144° Southeast  Level Estimated
Wed 04:08:00 AM 47.8330 109.5016 144° Southeast  Level Estimated
Wed 04:09:00 AM 47.7448 109.5964 144° Southeast  Level Estimated
Wed 04:10:00 AM 47.6565 109.6908 144° Southeast  Level Estimated
Wed 04:11:00 AM 47.5682 109.7848 144° Southeast  Level Estimated
Wed 04:12:00 AM 47.4797 109.8786 144° Southeast  Level Estimated
Wed 04:13:00 AM 47.3912 109.9721 144° Southeast  Level Estimated
Wed 04:14:00 AM 47.3027 110.0652 144° Southeast  Level Estimated
Wed 04:15:00 AM 47.2140 110.1580 145° Southeast  Level Estimated
Wed 04:16:00 AM 47.1253 110.2505 145° Southeast  Level Estimated
Wed 04:17:00 AM 47.0365 110.3427 145° Southeast  Level Estimated
Wed 04:18:00 AM 46.9476 110.4346 145° Southeast  Level Estimated
Wed 04:19:00 AM 46.8587 110.5262 145° Southeast  Level Estimated
Wed 04:20:00 AM 46.7697 110.6175 145° Southeast  Level Estimated
Wed 04:21:00 AM 46.6806 110.7085 145° Southeast  Level Estimated
Wed 04:22:00 AM 46.5914 110.7992 145° Southeast  Level Estimated
Wed 04:23:00 AM 46.5022 110.8896 145° Southeast  Level Estimated
Wed 04:24:00 AM 46.4129 110.9797 145° Southeast  Level Estimated
Wed 04:25:00 AM 46.3235 111.0695 145° Southeast  Level Estimated
Wed 04:26:00 AM 46.2341 111.1590 145° Southeast  Level Estimated
Wed 04:27:00 AM 46.1446 111.2482 145° Southeast  Level Estimated
Wed 04:28:00 AM 46.0550 111.3371 145° Southeast  Level Estimated
Wed 04:29:00 AM 45.9654 111.4258 145° Southeast  Level Estimated
Wed 04:30:00 AM 45.8756 111.5141 146° Southeast  Level Estimated
Wed 04:31:00 AM 45.7859 111.6022 146° Southeast  Level Estimated
Wed 04:32:00 AM 45.6960 111.6900 146° Southeast  Level Estimated
Wed 04:33:00 AM 45.6061 111.7775 146° Southeast  Level Estimated
Wed 04:34:00 AM 45.5161 111.8647 146° Southeast  Level Estimated
Wed 04:35:00 AM 45.4260 111.9516 146° Southeast  Level Estimated
Wed 04:36:00 AM 45.3359 112.0383 146° Southeast  Level Estimated
Wed 04:37:00 AM 45.2457 112.1247 146° Southeast  Level Estimated
Wed 04:38:00 AM 45.1555 112.2108 146° Southeast  Level Estimated
Wed 04:39:00 AM 45.0652 112.2967 146° Southeast  Level Estimated
Wed 04:40:00 AM 44.9748 112.3822 146° Southeast  Level Estimated
Wed 04:41:00 AM 44.8844 112.4675 146° Southeast  Level Estimated
Wed 04:42:00 AM 44.7939 112.5526 146° Southeast  Level Estimated
Wed 04:43:00 AM 44.7033 112.6373 146° Southeast  Level Estimated
Wed 04:44:00 AM 44.6127 112.7218 146° Southeast  Level Estimated
Wed 04:45:00 AM 44.5220 112.8061 146° Southeast  Level Estimated
Wed 04:46:00 AM 44.4312 112.8901 147° Southeast  Level Estimated
Wed 04:47:00 AM 44.3404 112.9738 147° Southeast  Level Estimated
Wed 04:48:00 AM 44.2495 113.0572 147° Southeast  Level Estimated
Wed 04:49:00 AM 44.1586 113.1404 147° Southeast  Level Estimated
Wed 04:50:00 AM 44.0676 113.2234 147° Southeast  Level Estimated
Wed 04:51:00 AM 43.9765 113.3061 147° Southeast  Level Estimated
Wed 04:52:00 AM 43.8854 113.3885 147° Southeast  Level Estimated
Wed 04:53:00 AM 43.7942 113.4707 147° Southeast  Level Estimated
Wed 04:54:00 AM 43.7030 113.5526 147° Southeast  Level Estimated
Wed 04:55:00 AM 43.6117 113.6343 147° Southeast  Level Estimated
Wed 04:56:00 AM 43.5204 113.7158 147° Southeast  Level Estimated
Wed 04:57:00 AM 43.4289 113.7970 147° Southeast  Level Estimated
Wed 04:58:00 AM 43.3375 113.8779 147° Southeast  Level Estimated
Wed 04:59:00 AM 43.2459 113.9586 147° Southeast  Level Estimated
Wed 05:00:00 AM 43.1544 114.0391 147° Southeast  Level Estimated
Wed 05:01:00 AM 43.0627 114.1193 147° Southeast  Level Estimated
Wed 05:02:00 AM 42.9711 114.1993 147° Southeast  Level Estimated
Wed 05:03:00 AM 42.8793 114.2790 147° Southeast  Level Estimated
Wed 05:04:00 AM 42.7875 114.3585 148° Southeast  Level Estimated
Wed 05:05:00 AM 42.6956 114.4378 148° Southeast  Level Estimated
Wed 05:06:00 AM 42.6037 114.5168 148° Southeast  Level Estimated
Wed 05:07:00 AM 42.5118 114.5956 148° Southeast  Level Estimated
Wed 05:08:00 AM 42.4198 114.6742 148° Southeast  Level Estimated
Wed 05:09:00 AM 42.3277 114.7525 148° Southeast  Level Estimated
Wed 05:09:53 AM 40.3920 115.2860 148° Southeast 397 457 14,800  Level FlightAware ADS-B
Wed 05:10:00 AM 42.2355 114.8307 148° Southeast  Level Estimated
Wed 05:10:56 AM 40.3910 115.4150 91° East 397 457 14,800  Level FlightAware ADS-B
Wed 05:11:00 AM 42.1434 114.9085 148° Southeast  Level Estimated
Wed 05:11:32 AM 40.3900 115.4890 91° East 397 457 14,800  Level FlightAware ADS-B
Wed 05:12:59 AM 40.2420 115.6300 144° Southeast 377 434 12,900 -905 Descending FlightAware ADS-B
Wed 05:13:38 AM 40.1950 115.6740 144° Southeast 377 434 12,900  Level FlightAware ADS-B
Wed 05:14:50 AM 40.1070 115.7540 145° Southeast 377 434 12,900 -431 Level FlightAware ADS-B
Wed 05:16:11 AM 40.0110 115.8400 146° Southeast 285 328 11,800 -541 Descending FlightAware ADS-B
Wed 05:16:52 AM 39.9640 115.8830 145° Southeast 287 330 11,800  Level FlightAware ADS-B
Wed 05:17:28 AM 39.9240 115.9190 145° Southeast 289 333 11,800  Level FlightAware ADS-B
Wed 05:18:10 AM 39.8810 115.9580 145° Southeast 289 333 11,800  Level FlightAware ADS-B
Wed 05:18:56 AM 39.8260 116.0070 146° Southeast 286 329 11,800  Level FlightAware ADS-B
Wed 05:19:37 AM 39.7820 116.0460 146° Southeast 287 330 11,800 -424 Level FlightAware ADS-B
Wed 05:20:21 AM 39.7360 116.0940 141° Southeast 292 336 11,200 -882 Descending FlightAware ADS-B
Wed 05:20:45 AM 39.7230 116.1300 115° Southeast 284 327 10,800 -1,000 Descending FlightAware ADS-B
Wed 05:21:15 AM 39.7190 116.1820 96° East 270 311 10,300 -1,315 Descending FlightAware ADS-B
Wed 05:21:58 AM 39.7160 116.2500 93° East 269 310 9,200 -1,562 Descending FlightAware ADS-B
Wed 05:22:28 AM 39.7190 116.3000 86° East 269 310 8,400 -1,200 Descending FlightAware ADS-B
Wed 05:23:03 AM 39.7230 116.3550 85° East 258 297 7,900 -971 Descending FlightAware ADS-B
Wed 05:23:36 AM 39.7170 116.4030 99° East 244 281 7,300 -716 Descending FlightAware ADS-B
Wed 05:24:10 AM 39.6960 116.4380 128° Southeast 211 243 7,100 -676 Descending FlightAware ADS-B
Wed 05:24:47 AM 39.6650 116.4590 152° Southeast 201 231 6,500 -947 Descending FlightAware ADS-B
Wed 05:25:07 AM 39.6580 116.4810 112° Southeast 205 236 6,200 -646 Descending FlightAware ADS-B
Wed 05:25:52 AM 39.6630 116.5370 83° East 208 239 5,800 -293 Descending FlightAware ADS-B
Wed 05:26:29 AM 39.6760 116.5770 67° East 201 231 5,800  Level FlightAware ADS-B
Wed 05:27:10 AM 39.7100 116.6010 29° Northeast 200 230 5,800  Level FlightAware ADS-B
Wed 05:28:05 AM 39.7550 116.6220 20° North 189 217 5,800 -61 Level FlightAware ADS-B
Wed 05:28:49 AM 39.7940 116.6190 357° North 184 212 5,700 -643 Descending FlightAware ADS-B
Wed 05:29:29 AM 39.8290 116.6130 353° North 194 223 4,900 -1,000 Descending FlightAware ADS-B
Wed 05:30:07 AM 39.8620 116.6070 352° North 184 212 4,400 -975 Descending FlightAware ADS-B
Wed 05:30:49 AM 39.8960 116.6020 354° North 186 214 3,600 -1,116 Descending FlightAware ADS-B
Wed 05:31:33 AM 39.9330 116.5960 353° North 190 219 2,800 -1,048 Descending FlightAware ADS-B
Wed 05:31:52 AM 39.9510 116.5930 353° North 185 213 2,500 -1,043 Descending FlightAware ADS-B
Wed 05:32:42 AM 39.9910 116.5870 353° North 161 185 1,600 -947 Descending FlightAware ADS-B
Wed 05:33:08 AM 40.0090 116.5840 353° North 155 178 1,300 -333 Descending FlightAware ADS-B
Wed 05:33:36 AM 40.0260 116.5820 355° North 155 178 1,300 -629 Level FlightAware ADS-B
Wed 05:34:53 AM 40.0770 116.5730 352° North 145 167 200 -857 Descending FlightAware ADS-B
Wed 05:37:00 AM 40.0801 116.5846 71° East  Level Estimated

Login

Don't have an account? Register now (free) for customized features, flight alerts, and more!